createdAt,value
2017-09-09T14:38:46.685Z,54.70
2017-09-09T14:41:12.651Z,55.40
2017-09-09T14:43:52.417Z,56.00
2017-09-09T14:46:18.350Z,56.00
2017-09-09T14:48:44.278Z,56.40
2017-09-09T14:51:10.209Z,56.20
2017-09-09T14:53:49.889Z,56.70
2017-09-09T14:56:15.811Z,57.20
2017-09-09T14:58:41.733Z,57.60
2017-09-09T15:01:07.674Z,57.30
2017-09-09T15:03:38.109Z,57.70
2017-09-09T15:06:05.862Z,57.50
2017-09-09T15:08:31.797Z,57.40
2017-09-09T15:10:57.722Z,57.80
2017-09-09T15:13:23.658Z,58.30
2017-09-09T15:15:50.304Z,59.70
2017-09-09T15:18:16.253Z,59.10
2017-09-09T15:20:42.205Z,59.50
2017-09-09T15:23:08.146Z,59.50
2017-09-09T15:25:34.057Z,59.00
2017-09-09T15:28:00.044Z,59.80
2017-09-09T15:30:26.966Z,60.50
2017-09-09T15:32:52.893Z,61.00
2017-09-09T15:35:21.888Z,60.90
2017-09-09T15:37:49.893Z,61.20
2017-09-09T15:40:16.611Z,61.60
2017-09-09T15:42:42.542Z,61.40
2017-09-09T15:45:08.458Z,62.70
2017-09-09T15:47:34.389Z,63.20
2017-09-09T15:50:00.308Z,63.70
2017-09-09T15:52:26.260Z,64.30
2017-09-09T15:54:52.197Z,65.10
2017-09-09T15:57:22.214Z,66.00
2017-09-09T16:00:00.774Z,64.80
2017-09-09T16:05:00.657Z,62.30
2017-09-09T16:07:26.693Z,62.90
2017-09-09T16:09:55.068Z,62.90
2017-09-09T16:12:21.108Z,63.70
2017-09-09T16:14:51.040Z,64.30
2017-09-09T16:17:35.505Z,64.70
2017-09-09T16:20:07.100Z,64.70
2017-09-09T16:22:38.636Z,64.90
2017-09-09T16:25:11.061Z,65.60
2017-09-09T16:27:37.017Z,66.00
2017-09-09T16:30:02.988Z,66.40
2017-09-09T16:32:28.918Z,66.90
2017-09-09T16:34:54.880Z,67.30
2017-09-09T16:37:25.402Z,69.10
2017-09-09T16:39:51.345Z,68.30
2017-09-09T16:42:31.166Z,68.90
2017-09-09T16:45:00.812Z,68.80
2017-09-09T16:47:26.756Z,69.10
2017-09-09T16:49:52.891Z,69.30
2017-09-09T16:52:20.134Z,69.90
2017-09-09T16:54:46.076Z,69.90
2017-09-09T16:57:12.009Z,70.00
2017-09-09T16:59:37.939Z,70.30
2017-09-09T17:02:03.870Z,70.10
2017-09-09T17:04:29.810Z,70.30
2017-09-09T17:06:55.752Z,70.60
2017-09-09T17:09:21.682Z,70.80
2017-09-09T17:11:47.620Z,70.90
2017-09-09T17:14:13.574Z,72.20
2017-09-09T17:16:40.262Z,72.10
2017-09-09T17:19:06.178Z,72.10
2017-09-09T17:21:32.123Z,71.40
